sensor_id;sensor_type;location;lat;lon;timestamp;P1;durP1;ratioP1;P2;durP2;ratioP2
18899;SDS011;9582;52.018;6.306;2022-12-05T00:01:13;40.30;;;22.23;;
18899;SDS011;9582;52.018;6.306;2022-12-05T00:03:43;37.97;;;21.33;;
18899;SDS011;9582;52.018;6.306;2022-12-05T00:06:11;42.80;;;23.63;;
18899;SDS011;9582;52.018;6.306;2022-12-05T00:08:37;42.90;;;23.00;;
18899;SDS011;9582;52.018;6.306;2022-12-05T00:11:09;30.07;;;16.63;;
18899;SDS011;9582;52.018;6.306;2022-12-05T00:13:36;40.43;;;21.20;;
18899;SDS011;9582;52.018;6.306;2022-12-05T00:16:05;43.60;;;23.00;;
18899;SDS011;9582;52.018;6.306;2022-12-05T00:18:33;46.00;;;24.43;;
18899;SDS011;9582;52.018;6.306;2022-12-05T00:21:00;46.53;;;23.70;;
18899;SDS011;9582;52.018;6.306;2022-12-05T00:23:27;40.13;;;21.63;;
18899;SDS011;9582;52.018;6.306;2022-12-05T00:25:54;42.83;;;23.53;;
18899;SDS011;9582;52.018;6.306;2022-12-05T00:28:21;45.27;;;24.27;;
18899;SDS011;9582;52.018;6.306;2022-12-05T00:30:47;42.53;;;23.13;;
18899;SDS011;9582;52.018;6.306;2022-12-05T00:33:14;38.90;;;20.53;;
18899;SDS011;9582;52.018;6.306;2022-12-05T00:35:40;41.07;;;24.00;;
18899;SDS011;9582;52.018;6.306;2022-12-05T00:38:07;47.37;;;25.37;;
18899;SDS011;9582;52.018;6.306;2022-12-05T00:40:35;47.43;;;25.27;;
18899;SDS011;9582;52.018;6.306;2022-12-05T00:43:02;47.40;;;26.00;;
18899;SDS011;9582;52.018;6.306;2022-12-05T00:45:28;49.33;;;25.43;;
18899;SDS011;9582;52.018;6.306;2022-12-05T00:47:55;47.53;;;26.27;;
18899;SDS011;9582;52.018;6.306;2022-12-05T00:50:21;41.67;;;21.93;;
18899;SDS011;9582;52.018;6.306;2022-12-05T00:52:47;45.53;;;23.70;;
18899;SDS011;9582;52.018;6.306;2022-12-05T00:55:14;40.63;;;17.43;;
18899;SDS011;9582;52.018;6.306;2022-12-05T00:57:42;47.10;;;24.83;;
18899;SDS011;9582;52.018;6.306;2022-12-05T01:00:09;50.50;;;26.07;;
18899;SDS011;9582;52.018;6.306;2022-12-05T01:02:36;45.73;;;24.27;;
18899;SDS011;9582;52.018;6.306;2022-12-05T01:05:03;50.17;;;25.57;;
18899;SDS011;9582;52.018;6.306;2022-12-05T01:07:30;44.13;;;23.77;;
18899;SDS011;9582;52.018;6.306;2022-12-05T01:09:57;48.40;;;25.53;;
18899;SDS011;9582;52.018;6.306;2022-12-05T01:12:23;44.70;;;24.80;;
18899;SDS011;9582;52.018;6.306;2022-12-05T01:14:53;50.10;;;26.93;;
18899;SDS011;9582;52.018;6.306;2022-12-05T01:17:20;50.97;;;26.70;;
18899;SDS011;9582;52.018;6.306;2022-12-05T01:19:46;49.53;;;26.23;;
18899;SDS011;9582;52.018;6.306;2022-12-05T01:22:13;53.90;;;27.93;;
18899;SDS011;9582;52.018;6.306;2022-12-05T01:24:39;46.47;;;25.63;;
18899;SDS011;9582;52.018;6.306;2022-12-05T01:27:06;34.93;;;19.27;;
18899;SDS011;9582;52.018;6.306;2022-12-05T01:29:32;35.60;;;15.77;;
18899;SDS011;9582;52.018;6.306;2022-12-05T01:32:00;37.87;;;20.33;;
18899;SDS011;9582;52.018;6.306;2022-12-05T01:34:27;41.07;;;22.90;;
18899;SDS011;9582;52.018;6.306;2022-12-05T01:36:53;46.67;;;25.60;;
18899;SDS011;9582;52.018;6.306;2022-12-05T01:39:20;45.10;;;23.30;;
18899;SDS011;9582;52.018;6.306;2022-12-05T01:41:48;46.03;;;25.33;;
18899;SDS011;9582;52.018;6.306;2022-12-05T01:47:21;47.57;;;23.80;;
18899;SDS011;9582;52.018;6.306;2022-12-05T01:49:50;51.40;;;26.10;;
18899;SDS011;9582;52.018;6.306;2022-12-05T01:52:17;50.90;;;26.60;;
18899;SDS011;9582;52.018;6.306;2022-12-05T01:54:48;47.37;;;25.27;;
18899;SDS011;9582;52.018;6.306;2022-12-05T01:57:17;46.63;;;23.77;;
18899;SDS011;9582;52.018;6.306;2022-12-05T01:59:44;45.87;;;26.13;;
18899;SDS011;9582;52.018;6.306;2022-12-05T02:02:15;52.27;;;26.47;;
18899;SDS011;9582;52.018;6.306;2022-12-05T02:04:49;50.73;;;25.77;;
18899;SDS011;9582;52.018;6.306;2022-12-05T02:07:21;46.20;;;25.30;;
18899;SDS011;9582;52.018;6.306;2022-12-05T02:09:48;51.83;;;25.97;;
18899;SDS011;9582;52.018;6.306;2022-12-05T02:12:16;49.23;;;25.43;;
18899;SDS011;9582;52.018;6.306;2022-12-05T02:14:45;49.07;;;26.20;;
18899;SDS011;9582;52.018;6.306;2022-12-05T02:17:22;49.73;;;25.83;;
18899;SDS011;9582;52.018;6.306;2022-12-05T02:20:02;51.30;;;25.37;;
18899;SDS011;9582;52.018;6.306;2022-12-05T02:22:55;54.80;;;26.47;;
18899;SDS011;9582;52.018;6.306;2022-12-05T02:25:38;70.72;;;38.50;;
18899;SDS011;9582;52.018;6.306;2022-12-05T02:28:28;56.77;;;28.53;;
18899;SDS011;9582;52.018;6.306;2022-12-05T02:31:08;57.57;;;28.37;;
18899;SDS011;9582;52.018;6.306;2022-12-05T02:33:39;52.53;;;27.57;;
18899;SDS011;9582;52.018;6.306;2022-12-05T02:36:12;53.67;;;26.23;;
18899;SDS011;9582;52.018;6.306;2022-12-05T02:38:43;48.87;;;25.07;;
18899;SDS011;9582;52.018;6.306;2022-12-05T02:41:18;52.50;;;26.43;;
18899;SDS011;9582;52.018;6.306;2022-12-05T02:43:50;55.80;;;26.03;;
18899;SDS011;9582;52.018;6.306;2022-12-05T02:46:25;62.97;;;28.10;;
18899;SDS011;9582;52.018;6.306;2022-12-05T02:48:56;57.70;;;25.37;;
18899;SDS011;9582;52.018;6.306;2022-12-05T02:51:28;53.30;;;25.17;;
18899;SDS011;9582;52.018;6.306;2022-12-05T02:53:58;54.30;;;25.03;;
18899;SDS011;9582;52.018;6.306;2022-12-05T02:56:27;50.17;;;25.73;;
18899;SDS011;9582;52.018;6.306;2022-12-05T02:58:57;52.50;;;24.90;;
18899;SDS011;9582;52.018;6.306;2022-12-05T03:01:27;62.23;;;27.53;;
18899;SDS011;9582;52.018;6.306;2022-12-05T03:03:58;57.77;;;26.23;;
18899;SDS011;9582;52.018;6.306;2022-12-05T03:06:27;55.57;;;26.97;;
18899;SDS011;9582;52.018;6.306;2022-12-05T03:08:57;55.23;;;24.90;;
18899;SDS011;9582;52.018;6.306;2022-12-05T03:11:27;54.53;;;25.80;;
18899;SDS011;9582;52.018;6.306;2022-12-05T03:13:57;56.80;;;28.03;;
18899;SDS011;9582;52.018;6.306;2022-12-05T03:16:27;53.73;;;24.90;;
18899;SDS011;9582;52.018;6.306;2022-12-05T03:18:58;63.83;;;27.17;;
18899;SDS011;9582;52.018;6.306;2022-12-05T03:21:29;62.07;;;27.83;;
18899;SDS011;9582;52.018;6.306;2022-12-05T03:24:00;61.20;;;26.43;;
18899;SDS011;9582;52.018;6.306;2022-12-05T03:26:42;68.53;;;28.17;;
18899;SDS011;9582;52.018;6.306;2022-12-05T03:29:19;59.73;;;27.13;;
18899;SDS011;9582;52.018;6.306;2022-12-05T03:31:53;60.67;;;27.70;;
18899;SDS011;9582;52.018;6.306;2022-12-05T03:34:29;76.03;;;28.13;;
18899;SDS011;9582;52.018;6.306;2022-12-05T03:37:03;60.73;;;27.80;;
18899;SDS011;9582;52.018;6.306;2022-12-05T03:39:36;63.97;;;26.43;;
18899;SDS011;9582;52.018;6.306;2022-12-05T03:42:08;41.07;;;20.67;;
18899;SDS011;9582;52.018;6.306;2022-12-05T03:44:39;50.20;;;23.63;;
18899;SDS011;9582;52.018;6.306;2022-12-05T03:47:15;66.17;;;26.13;;
18899;SDS011;9582;52.018;6.306;2022-12-05T03:49:46;51.60;;;22.73;;
18899;SDS011;9582;52.018;6.306;2022-12-05T03:52:17;66.47;;;27.50;;
18899;SDS011;9582;52.018;6.306;2022-12-05T03:54:48;70.57;;;28.63;;
18899;SDS011;9582;52.018;6.306;2022-12-05T03:57:20;58.10;;;26.03;;
18899;SDS011;9582;52.018;6.306;2022-12-05T03:59:50;67.83;;;26.93;;
18899;SDS011;9582;52.018;6.306;2022-12-05T04:02:22;61.97;;;28.07;;
18899;SDS011;9582;52.018;6.306;2022-12-05T04:04:54;75.23;;;28.50;;
18899;SDS011;9582;52.018;6.306;2022-12-05T04:07:25;67.07;;;27.60;;
18899;SDS011;9582;52.018;6.306;2022-12-05T04:09:55;71.13;;;27.83;;
18899;SDS011;9582;52.018;6.306;2022-12-05T04:12:26;78.03;;;28.30;;
18899;SDS011;9582;52.018;6.306;2022-12-05T04:14:55;64.67;;;26.60;;
18899;SDS011;9582;52.018;6.306;2022-12-05T04:17:29;61.23;;;27.80;;
18899;SDS011;9582;52.018;6.306;2022-12-05T04:20:03;50.07;;;23.10;;
18899;SDS011;9582;52.018;6.306;2022-12-05T04:22:54;57.00;;;24.20;;
18899;SDS011;9582;52.018;6.306;2022-12-05T04:25:21;55.43;;;27.30;;
18899;SDS011;9582;52.018;6.306;2022-12-05T04:30:52;60.43;;;26.10;;
18899;SDS011;9582;52.018;6.306;2022-12-05T04:33:31;50.57;;;24.33;;
18899;SDS011;9582;52.018;6.306;2022-12-05T04:36:06;63.07;;;25.93;;
18899;SDS011;9582;52.018;6.306;2022-12-05T04:38:38;51.10;;;25.03;;
18899;SDS011;9582;52.018;6.306;2022-12-05T04:41:10;54.47;;;26.03;;
18899;SDS011;9582;52.018;6.306;2022-12-05T04:43:41;58.03;;;27.57;;
18899;SDS011;9582;52.018;6.306;2022-12-05T04:46:10;58.00;;;25.00;;
18899;SDS011;9582;52.018;6.306;2022-12-05T04:48:41;60.53;;;27.90;;
18899;SDS011;9582;52.018;6.306;2022-12-05T04:51:15;67.67;;;27.87;;
18899;SDS011;9582;52.018;6.306;2022-12-05T04:53:45;57.00;;;26.53;;
18899;SDS011;9582;52.018;6.306;2022-12-05T04:56:18;57.47;;;26.30;;
18899;SDS011;9582;52.018;6.306;2022-12-05T04:58:48;59.30;;;27.47;;
18899;SDS011;9582;52.018;6.306;2022-12-05T05:01:16;55.20;;;27.00;;
18899;SDS011;9582;52.018;6.306;2022-12-05T05:03:50;58.67;;;27.57;;
18899;SDS011;9582;52.018;6.306;2022-12-05T05:06:19;64.17;;;28.47;;
18899;SDS011;9582;52.018;6.306;2022-12-05T05:08:46;50.93;;;25.43;;
18899;SDS011;9582;52.018;6.306;2022-12-05T05:11:15;49.73;;;25.73;;
18899;SDS011;9582;52.018;6.306;2022-12-05T05:13:44;58.47;;;27.50;;
18899;SDS011;9582;52.018;6.306;2022-12-05T05:16:12;59.40;;;27.53;;
18899;SDS011;9582;52.018;6.306;2022-12-05T05:18:42;55.77;;;25.77;;
18899;SDS011;9582;52.018;6.306;2022-12-05T05:21:14;49.93;;;24.63;;
18899;SDS011;9582;52.018;6.306;2022-12-05T05:23:42;54.50;;;28.40;;
18899;SDS011;9582;52.018;6.306;2022-12-05T05:26:09;47.97;;;25.40;;
18899;SDS011;9582;52.018;6.306;2022-12-05T05:28:36;56.07;;;26.73;;
18899;SDS011;9582;52.018;6.306;2022-12-05T05:31:02;46.50;;;25.23;;
18899;SDS011;9582;52.018;6.306;2022-12-05T05:33:30;42.53;;;21.43;;
18899;SDS011;9582;52.018;6.306;2022-12-05T05:35:56;21.20;;;12.43;;
18899;SDS011;9582;52.018;6.306;2022-12-05T05:38:27;52.87;;;26.67;;
18899;SDS011;9582;52.018;6.306;2022-12-05T05:40:54;52.60;;;25.93;;
18899;SDS011;9582;52.018;6.306;2022-12-05T05:43:20;50.33;;;26.07;;
18899;SDS011;9582;52.018;6.306;2022-12-05T05:45:47;49.47;;;25.13;;
18899;SDS011;9582;52.018;6.306;2022-12-05T05:48:13;51.90;;;24.87;;
18899;SDS011;9582;52.018;6.306;2022-12-05T05:50:40;59.43;;;27.53;;
18899;SDS011;9582;52.018;6.306;2022-12-05T05:53:09;56.43;;;27.73;;
18899;SDS011;9582;52.018;6.306;2022-12-05T05:55:39;54.03;;;27.57;;
18899;SDS011;9582;52.018;6.306;2022-12-05T05:58:05;55.47;;;27.63;;
18899;SDS011;9582;52.018;6.306;2022-12-05T06:00:33;50.43;;;26.07;;
18899;SDS011;9582;52.018;6.306;2022-12-05T06:03:00;51.47;;;27.10;;
18899;SDS011;9582;52.018;6.306;2022-12-05T06:05:26;57.27;;;27.77;;
18899;SDS011;9582;52.018;6.306;2022-12-05T06:07:52;61.80;;;28.57;;
18899;SDS011;9582;52.018;6.306;2022-12-05T06:10:19;53.97;;;27.33;;
18899;SDS011;9582;52.018;6.306;2022-12-05T06:12:47;57.47;;;27.60;;
18899;SDS011;9582;52.018;6.306;2022-12-05T06:15:13;52.63;;;25.07;;
18899;SDS011;9582;52.018;6.306;2022-12-05T06:17:40;50.50;;;26.77;;
18899;SDS011;9582;52.018;6.306;2022-12-05T06:20:07;50.13;;;25.27;;
18899;SDS011;9582;52.018;6.306;2022-12-05T06:22:34;57.33;;;26.87;;
18899;SDS011;9582;52.018;6.306;2022-12-05T06:25:00;62.23;;;28.27;;
18899;SDS011;9582;52.018;6.306;2022-12-05T06:27:28;49.27;;;25.70;;
18899;SDS011;9582;52.018;6.306;2022-12-05T06:29:56;53.10;;;26.77;;
18899;SDS011;9582;52.018;6.306;2022-12-05T06:32:23;42.27;;;23.57;;
18899;SDS011;9582;52.018;6.306;2022-12-05T06:34:49;46.80;;;26.37;;
18899;SDS011;9582;52.018;6.306;2022-12-05T06:37:16;51.03;;;25.70;;
18899;SDS011;9582;52.018;6.306;2022-12-05T06:39:42;45.20;;;25.43;;
18899;SDS011;9582;52.018;6.306;2022-12-05T06:42:09;51.47;;;25.83;;
18899;SDS011;9582;52.018;6.306;2022-12-05T06:44:35;47.97;;;25.40;;
18899;SDS011;9582;52.018;6.306;2022-12-05T06:47:03;53.80;;;26.47;;
18899;SDS011;9582;52.018;6.306;2022-12-05T06:49:30;38.43;;;22.93;;
18899;SDS011;9582;52.018;6.306;2022-12-05T06:51:58;43.53;;;23.63;;
18899;SDS011;9582;52.018;6.306;2022-12-05T06:54:25;41.60;;;24.50;;
18899;SDS011;9582;52.018;6.306;2022-12-05T06:56:51;46.87;;;24.93;;
18899;SDS011;9582;52.018;6.306;2022-12-05T06:59:18;54.07;;;26.83;;
18899;SDS011;9582;52.018;6.306;2022-12-05T07:01:44;46.73;;;24.50;;
18899;SDS011;9582;52.018;6.306;2022-12-05T07:04:12;45.67;;;23.67;;
18899;SDS011;9582;52.018;6.306;2022-12-05T07:06:41;43.20;;;24.10;;
18899;SDS011;9582;52.018;6.306;2022-12-05T07:09:08;37.83;;;20.73;;
18899;SDS011;9582;52.018;6.306;2022-12-05T07:11:35;40.33;;;21.33;;
18899;SDS011;9582;52.018;6.306;2022-12-05T07:14:02;41.30;;;22.27;;
18899;SDS011;9582;52.018;6.306;2022-12-05T07:16:30;35.87;;;20.90;;
18899;SDS011;9582;52.018;6.306;2022-12-05T07:18:57;35.10;;;20.83;;
18899;SDS011;9582;52.018;6.306;2022-12-05T07:21:25;36.50;;;20.40;;
18899;SDS011;9582;52.018;6.306;2022-12-05T07:23:52;42.43;;;23.00;;
18899;SDS011;9582;52.018;6.306;2022-12-05T07:26:20;35.63;;;20.07;;
18899;SDS011;9582;52.018;6.306;2022-12-05T07:28:49;28.53;;;17.23;;
18899;SDS011;9582;52.018;6.306;2022-12-05T07:31:17;39.93;;;21.07;;
18899;SDS011;9582;52.018;6.306;2022-12-05T07:33:46;40.90;;;20.83;;
18899;SDS011;9582;52.018;6.306;2022-12-05T07:36:13;34.73;;;19.63;;
18899;SDS011;9582;52.018;6.306;2022-12-05T07:38:42;31.50;;;19.13;;
18899;SDS011;9582;52.018;6.306;2022-12-05T07:41:09;35.67;;;19.20;;
18899;SDS011;9582;52.018;6.306;2022-12-05T07:43:39;30.07;;;18.37;;
18899;SDS011;9582;52.018;6.306;2022-12-05T07:46:05;33.30;;;19.23;;
18899;SDS011;9582;52.018;6.306;2022-12-05T07:48:33;34.97;;;19.43;;
18899;SDS011;9582;52.018;6.306;2022-12-05T07:51:00;35.90;;;20.70;;
18899;SDS011;9582;52.018;6.306;2022-12-05T07:53:27;40.10;;;19.90;;
18899;SDS011;9582;52.018;6.306;2022-12-05T07:55:57;35.50;;;21.50;;
18899;SDS011;9582;52.018;6.306;2022-12-05T07:58:24;42.53;;;20.90;;
18899;SDS011;9582;52.018;6.306;2022-12-05T08:00:51;48.73;;;23.27;;
18899;SDS011;9582;52.018;6.306;2022-12-05T08:03:17;53.50;;;23.23;;
18899;SDS011;9582;52.018;6.306;2022-12-05T08:05:44;44.87;;;23.47;;
18899;SDS011;9582;52.018;6.306;2022-12-05T08:08:10;45.10;;;22.67;;
18899;SDS011;9582;52.018;6.306;2022-12-05T08:10:37;36.37;;;20.30;;
18899;SDS011;9582;52.018;6.306;2022-12-05T08:13:05;40.90;;;21.97;;
18899;SDS011;9582;52.018;6.306;2022-12-05T08:15:33;46.07;;;23.57;;
18899;SDS011;9582;52.018;6.306;2022-12-05T08:18:00;44.23;;;22.83;;
18899;SDS011;9582;52.018;6.306;2022-12-05T08:20:26;48.43;;;24.47;;
18899;SDS011;9582;52.018;6.306;2022-12-05T08:22:52;46.67;;;22.00;;
18899;SDS011;9582;52.018;6.306;2022-12-05T08:25:19;44.13;;;20.73;;
18899;SDS011;9582;52.018;6.306;2022-12-05T08:27:45;46.27;;;23.30;;
18899;SDS011;9582;52.018;6.306;2022-12-05T08:30:13;45.40;;;23.27;;
18899;SDS011;9582;52.018;6.306;2022-12-05T08:32:40;52.00;;;25.03;;
18899;SDS011;9582;52.018;6.306;2022-12-05T08:35:07;42.37;;;22.50;;
18899;SDS011;9582;52.018;6.306;2022-12-05T08:37:34;56.87;;;24.93;;
18899;SDS011;9582;52.018;6.306;2022-12-05T08:40:02;49.00;;;25.47;;
18899;SDS011;9582;52.018;6.306;2022-12-05T08:42:32;55.60;;;27.07;;
18899;SDS011;9582;52.018;6.306;2022-12-05T08:44:58;48.13;;;24.33;;
18899;SDS011;9582;52.018;6.306;2022-12-05T08:47:26;52.07;;;24.10;;
18899;SDS011;9582;52.018;6.306;2022-12-05T08:49:52;53.47;;;25.97;;
18899;SDS011;9582;52.018;6.306;2022-12-05T08:52:19;56.90;;;24.80;;
18899;SDS011;9582;52.018;6.306;2022-12-05T08:54:46;56.87;;;26.47;;
18899;SDS011;9582;52.018;6.306;2022-12-05T08:57:13;62.10;;;27.07;;
18899;SDS011;9582;52.018;6.306;2022-12-05T08:59:39;45.57;;;23.90;;
18899;SDS011;9582;52.018;6.306;2022-12-05T09:02:07;58.87;;;26.70;;
18899;SDS011;9582;52.018;6.306;2022-12-05T09:04:35;55.57;;;25.20;;
18899;SDS011;9582;52.018;6.306;2022-12-05T09:07:01;69.80;;;28.00;;
18899;SDS011;9582;52.018;6.306;2022-12-05T09:09:28;61.83;;;27.83;;
18899;SDS011;9582;52.018;6.306;2022-12-05T09:11:56;79.83;;;28.60;;
18899;SDS011;9582;52.018;6.306;2022-12-05T09:14:24;78.53;;;29.10;;
18899;SDS011;9582;52.018;6.306;2022-12-05T09:16:56;67.13;;;28.37;;
18899;SDS011;9582;52.018;6.306;2022-12-05T09:19:23;68.77;;;26.60;;
18899;SDS011;9582;52.018;6.306;2022-12-05T09:21:53;84.27;;;29.10;;
18899;SDS011;9582;52.018;6.306;2022-12-05T09:24:19;69.47;;;28.33;;
18899;SDS011;9582;52.018;6.306;2022-12-05T09:26:46;84.30;;;28.37;;
18899;SDS011;9582;52.018;6.306;2022-12-05T09:29:13;68.93;;;27.70;;
18899;SDS011;9582;52.018;6.306;2022-12-05T09:31:40;86.23;;;30.37;;
18899;SDS011;9582;52.018;6.306;2022-12-05T09:34:07;80.07;;;29.53;;
18899;SDS011;9582;52.018;6.306;2022-12-05T09:36:34;69.10;;;28.23;;
18899;SDS011;9582;52.018;6.306;2022-12-05T09:39:03;73.07;;;29.53;;
18899;SDS011;9582;52.018;6.306;2022-12-05T09:41:36;63.63;;;28.10;;
18899;SDS011;9582;52.018;6.306;2022-12-05T09:44:43;83.47;;;29.23;;
18899;SDS011;9582;52.018;6.306;2022-12-05T09:47:21;72.23;;;29.00;;
18899;SDS011;9582;52.018;6.306;2022-12-05T09:49:59;69.00;;;27.97;;
18899;SDS011;9582;52.018;6.306;2022-12-05T09:52:30;57.40;;;26.40;;
18899;SDS011;9582;52.018;6.306;2022-12-05T09:55:02;61.80;;;28.43;;
18899;SDS011;9582;52.018;6.306;2022-12-05T09:57:32;76.87;;;29.43;;
18899;SDS011;9582;52.018;6.306;2022-12-05T10:00:03;60.00;;;26.87;;
18899;SDS011;9582;52.018;6.306;2022-12-05T10:02:35;81.53;;;29.93;;
18899;SDS011;9582;52.018;6.306;2022-12-05T10:05:10;69.93;;;27.53;;
18899;SDS011;9582;52.018;6.306;2022-12-05T10:07:42;60.97;;;26.57;;
18899;SDS011;9582;52.018;6.306;2022-12-05T10:10:28;62.57;;;25.57;;
18899;SDS011;9582;52.018;6.306;2022-12-05T10:13:13;60.00;;;25.47;;
18899;SDS011;9582;52.018;6.306;2022-12-05T10:15:47;69.90;;;26.23;;
18899;SDS011;9582;52.018;6.306;2022-12-05T10:18:23;61.83;;;26.13;;
18899;SDS011;9582;52.018;6.306;2022-12-05T10:20:55;86.67;;;28.33;;
18899;SDS011;9582;52.018;6.306;2022-12-05T10:23:28;80.67;;;26.20;;
18899;SDS011;9582;52.018;6.306;2022-12-05T10:25:59;64.00;;;26.90;;
18899;SDS011;9582;52.018;6.306;2022-12-05T10:28:31;54.83;;;24.43;;
18899;SDS011;9582;52.018;6.306;2022-12-05T10:31:02;63.40;;;25.60;;
18899;SDS011;9582;52.018;6.306;2022-12-05T10:33:35;76.57;;;27.00;;
18899;SDS011;9582;52.018;6.306;2022-12-05T10:36:10;63.80;;;24.03;;
18899;SDS011;9582;52.018;6.306;2022-12-05T10:38:38;62.93;;;25.33;;
18899;SDS011;9582;52.018;6.306;2022-12-05T10:41:07;52.37;;;24.23;;
18899;SDS011;9582;52.018;6.306;2022-12-05T10:43:38;74.20;;;26.03;;
18899;SDS011;9582;52.018;6.306;2022-12-05T10:46:06;45.50;;;23.17;;
18899;SDS011;9582;52.018;6.306;2022-12-05T10:48:34;53.87;;;24.67;;
18899;SDS011;9582;52.018;6.306;2022-12-05T10:51:02;44.60;;;22.57;;
18899;SDS011;9582;52.018;6.306;2022-12-05T10:53:31;50.37;;;24.17;;
18899;SDS011;9582;52.018;6.306;2022-12-05T10:56:05;58.30;;;24.10;;
18899;SDS011;9582;52.018;6.306;2022-12-05T10:59:04;51.10;;;23.50;;
18899;SDS011;9582;52.018;6.306;2022-12-05T11:01:32;46.60;;;22.83;;
18899;SDS011;9582;52.018;6.306;2022-12-05T11:04:00;43.27;;;21.93;;
18899;SDS011;9582;52.018;6.306;2022-12-05T11:06:33;41.07;;;22.13;;
18899;SDS011;9582;52.018;6.306;2022-12-05T11:09:02;54.03;;;23.43;;
18899;SDS011;9582;52.018;6.306;2022-12-05T11:11:40;44.20;;;21.77;;
18899;SDS011;9582;52.018;6.306;2022-12-05T11:14:08;40.93;;;21.47;;
18899;SDS011;9582;52.018;6.306;2022-12-05T11:16:51;38.27;;;20.67;;
18899;SDS011;9582;52.018;6.306;2022-12-05T11:19:22;46.73;;;21.00;;
18899;SDS011;9582;52.018;6.306;2022-12-05T11:21:51;33.03;;;19.00;;
18899;SDS011;9582;52.018;6.306;2022-12-05T11:24:19;34.17;;;20.47;;
18899;SDS011;9582;52.018;6.306;2022-12-05T11:26:48;36.03;;;20.00;;
18899;SDS011;9582;52.018;6.306;2022-12-05T11:29:26;34.27;;;19.00;;
18899;SDS011;9582;52.018;6.306;2022-12-05T11:31:55;31.60;;;18.77;;
18899;SDS011;9582;52.018;6.306;2022-12-05T11:34:22;35.03;;;19.60;;
18899;SDS011;9582;52.018;6.306;2022-12-05T11:36:53;34.47;;;18.30;;
18899;SDS011;9582;52.018;6.306;2022-12-05T11:39:23;34.60;;;19.20;;
18899;SDS011;9582;52.018;6.306;2022-12-05T11:41:56;32.77;;;18.50;;
18899;SDS011;9582;52.018;6.306;2022-12-05T11:44:37;33.90;;;18.80;;
18899;SDS011;9582;52.018;6.306;2022-12-05T11:47:22;30.60;;;17.30;;
18899;SDS011;9582;52.018;6.306;2022-12-05T11:50:11;35.23;;;18.47;;
18899;SDS011;9582;52.018;6.306;2022-12-05T11:52:53;32.50;;;18.67;;
18899;SDS011;9582;52.018;6.306;2022-12-05T11:55:31;33.90;;;17.77;;
18899;SDS011;9582;52.018;6.306;2022-12-05T11:58:09;28.83;;;17.13;;
18899;SDS011;9582;52.018;6.306;2022-12-05T12:01:03;32.43;;;18.37;;
18899;SDS011;9582;52.018;6.306;2022-12-05T12:03:48;33.30;;;18.83;;
18899;SDS011;9582;52.018;6.306;2022-12-05T12:06:30;29.53;;;18.43;;
18899;SDS011;9582;52.018;6.306;2022-12-05T12:09:08;31.83;;;19.17;;
18899;SDS011;9582;52.018;6.306;2022-12-05T12:11:48;30.27;;;18.77;;
18899;SDS011;9582;52.018;6.306;2022-12-05T12:14:24;31.87;;;17.60;;
18899;SDS011;9582;52.018;6.306;2022-12-05T12:16:56;32.57;;;17.60;;
18899;SDS011;9582;52.018;6.306;2022-12-05T12:19:37;34.20;;;19.00;;
18899;SDS011;9582;52.018;6.306;2022-12-05T12:22:19;30.33;;;18.10;;
18899;SDS011;9582;52.018;6.306;2022-12-05T12:25:09;30.03;;;17.33;;
18899;SDS011;9582;52.018;6.306;2022-12-05T12:27:46;31.13;;;17.30;;
18899;SDS011;9582;52.018;6.306;2022-12-05T12:30:23;30.13;;;18.50;;
18899;SDS011;9582;52.018;6.306;2022-12-05T12:33:00;37.10;;;19.07;;
18899;SDS011;9582;52.018;6.306;2022-12-05T12:35:31;34.07;;;19.70;;
18899;SDS011;9582;52.018;6.306;2022-12-05T12:38:11;32.63;;;18.63;;
18899;SDS011;9582;52.018;6.306;2022-12-05T12:40:54;26.17;;;16.37;;
18899;SDS011;9582;52.018;6.306;2022-12-05T12:43:29;30.43;;;18.80;;
18899;SDS011;9582;52.018;6.306;2022-12-05T12:46:10;30.63;;;18.37;;
18899;SDS011;9582;52.018;6.306;2022-12-05T12:48:51;36.27;;;18.33;;
18899;SDS011;9582;52.018;6.306;2022-12-05T12:51:26;34.43;;;18.43;;
18899;SDS011;9582;52.018;6.306;2022-12-05T12:54:03;30.47;;;17.23;;
18899;SDS011;9582;52.018;6.306;2022-12-05T12:56:43;35.93;;;19.30;;
18899;SDS011;9582;52.018;6.306;2022-12-05T12:59:23;32.13;;;18.27;;
18899;SDS011;9582;52.018;6.306;2022-12-05T13:02:10;35.33;;;18.50;;
18899;SDS011;9582;52.018;6.306;2022-12-05T13:04:45;32.90;;;18.77;;
18899;SDS011;9582;52.018;6.306;2022-12-05T13:07:17;34.50;;;18.57;;
18899;SDS011;9582;52.018;6.306;2022-12-05T13:09:51;35.97;;;19.23;;
18899;SDS011;9582;52.018;6.306;2022-12-05T13:12:23;36.00;;;18.70;;
18899;SDS011;9582;52.018;6.306;2022-12-05T13:14:53;33.00;;;19.63;;
18899;SDS011;9582;52.018;6.306;2022-12-05T13:17:25;31.80;;;19.67;;
18899;SDS011;9582;52.018;6.306;2022-12-05T13:19:52;36.23;;;19.07;;
18899;SDS011;9582;52.018;6.306;2022-12-05T13:22:22;35.40;;;18.97;;
18899;SDS011;9582;52.018;6.306;2022-12-05T13:24:52;34.57;;;19.53;;
18899;SDS011;9582;52.018;6.306;2022-12-05T13:27:20;35.37;;;19.73;;
18899;SDS011;9582;52.018;6.306;2022-12-05T13:29:49;39.63;;;21.53;;
18899;SDS011;9582;52.018;6.306;2022-12-05T13:32:30;39.90;;;20.77;;
18899;SDS011;9582;52.018;6.306;2022-12-05T13:35:00;40.17;;;20.20;;
18899;SDS011;9582;52.018;6.306;2022-12-05T13:37:33;34.17;;;19.80;;
18899;SDS011;9582;52.018;6.306;2022-12-05T13:40:25;32.23;;;18.17;;
18899;SDS011;9582;52.018;6.306;2022-12-05T13:43:12;31.63;;;17.63;;
18899;SDS011;9582;52.018;6.306;2022-12-05T13:45:41;33.43;;;18.20;;
18899;SDS011;9582;52.018;6.306;2022-12-05T13:48:21;31.87;;;17.30;;
18899;SDS011;9582;52.018;6.306;2022-12-05T13:50:52;33.70;;;18.57;;
18899;SDS011;9582;52.018;6.306;2022-12-05T13:53:29;33.93;;;17.53;;
18899;SDS011;9582;52.018;6.306;2022-12-05T13:56:02;31.97;;;17.37;;
18899;SDS011;9582;52.018;6.306;2022-12-05T13:58:47;34.67;;;18.67;;
18899;SDS011;9582;52.018;6.306;2022-12-05T14:04:23;33.27;;;17.40;;
18899;SDS011;9582;52.018;6.306;2022-12-05T14:07:08;33.83;;;17.10;;
18899;SDS011;9582;52.018;6.306;2022-12-05T14:09:48;32.80;;;17.60;;
18899;SDS011;9582;52.018;6.306;2022-12-05T14:12:30;36.43;;;19.10;;
18899;SDS011;9582;52.018;6.306;2022-12-05T14:15:26;43.03;;;19.23;;
18899;SDS011;9582;52.018;6.306;2022-12-05T14:17:59;39.90;;;23.70;;
18899;SDS011;9582;52.018;6.306;2022-12-05T14:20:44;32.10;;;17.43;;
18899;SDS011;9582;52.018;6.306;2022-12-05T14:23:16;35.67;;;17.97;;
18899;SDS011;9582;52.018;6.306;2022-12-05T14:26:05;34.30;;;17.73;;
18899;SDS011;9582;52.018;6.306;2022-12-05T14:28:47;36.27;;;18.63;;
18899;SDS011;9582;52.018;6.306;2022-12-05T14:31:28;32.07;;;18.40;;
18899;SDS011;9582;52.018;6.306;2022-12-05T14:34:12;38.47;;;18.37;;
18899;SDS011;9582;52.018;6.306;2022-12-05T14:36:54;32.13;;;16.30;;
18899;SDS011;9582;52.018;6.306;2022-12-05T14:39:28;28.27;;;15.23;;
18899;SDS011;9582;52.018;6.306;2022-12-05T14:41:59;33.47;;;16.70;;
18899;SDS011;9582;52.018;6.306;2022-12-05T14:44:27;33.67;;;17.10;;
18899;SDS011;9582;52.018;6.306;2022-12-05T14:46:56;29.93;;;16.90;;
18899;SDS011;9582;52.018;6.306;2022-12-05T14:52:20;52.87;;;32.80;;
18899;SDS011;9582;52.018;6.306;2022-12-05T14:54:50;52.17;;;31.33;;
18899;SDS011;9582;52.018;6.306;2022-12-05T14:57:18;42.47;;;20.07;;
18899;SDS011;9582;52.018;6.306;2022-12-05T14:59:48;33.40;;;15.43;;
18899;SDS011;9582;52.018;6.306;2022-12-05T15:02:19;36.23;;;19.47;;
18899;SDS011;9582;52.018;6.306;2022-12-05T15:04:51;29.93;;;14.97;;
18899;SDS011;9582;52.018;6.306;2022-12-05T15:07:28;25.57;;;13.23;;
18899;SDS011;9582;52.018;6.306;2022-12-05T15:09:58;18.83;;;10.67;;